KMDH/MDH METAR and TAF weather

Enter ICAO airport designator
Station Type Date Time Source
KMDH METAR 2024/06/14 19:52 UTC NOAA

KMDH 141952Z 35007KT 10SM BKN049 BKN060 BKN075 33/21 A2995 RMK AO2 SLP135 T03280211


Station Type Date Time Source
KMDH Decoded METAR 2024/06/14 19:52 UTC NOAA

SOUTHERN ILLINOIS AIRPORT, IL, United States (KMDH) 37-47N 089-15W 130M
Jun 14, 2024 - 03:52 PM EDT / 2024.06.14 1952 UTC
Wind: from the N (350 degrees) at 8 MPH (7 KT):0
Visibility: 10 mile(s):0
Sky conditions: mostly cloudy
Temperature: 91.0 F (32.8 C)
Heat index: 96.4 F (35.8 C):1
Dew Point: 70.0 F (21.1 C)
Relative Humidity: 50%
Pressure (altimeter): 29.95 in. Hg (1014 hPa)
ob: KMDH 141952Z 35007KT 10SM BKN049 BKN060 BKN075 33/21 A2995 RMK AO2 SLP135 T03280211
cycle: 20

Station Type Date Time Source
KMDH TAF UTC NOAA

Error!

Example: see airport list